sensor_id;sensor_type;location;lat;lon;timestamp;temperature;humidity
16285;DHT22;8250;52.426;9.450;2022-09-13T00:01:17;17.20;99.90
16285;DHT22;8250;52.426;9.450;2022-09-13T00:03:43;17.20;99.90
16285;DHT22;8250;52.426;9.450;2022-09-13T00:06:13;17.20;99.90
16285;DHT22;8250;52.426;9.450;2022-09-13T00:08:42;17.20;99.90
16285;DHT22;8250;52.426;9.450;2022-09-13T00:11:14;17.20;99.90
16285;DHT22;8250;52.426;9.450;2022-09-13T00:13:41;17.20;99.90
16285;DHT22;8250;52.426;9.450;2022-09-13T00:16:11;17.20;99.90
16285;DHT22;8250;52.426;9.450;2022-09-13T00:18:40;17.20;99.90
16285;DHT22;8250;52.426;9.450;2022-09-13T00:21:08;17.20;99.90
16285;DHT22;8250;52.426;9.450;2022-09-13T00:23:36;17.20;99.90
16285;DHT22;8250;52.426;9.450;2022-09-13T00:26:06;17.20;99.90
16285;DHT22;8250;52.426;9.450;2022-09-13T00:28:34;17.20;99.90
16285;DHT22;8250;52.426;9.450;2022-09-13T00:31:01;17.20;99.90
16285;DHT22;8250;52.426;9.450;2022-09-13T00:33:28;17.20;99.90
16285;DHT22;8250;52.426;9.450;2022-09-13T00:35:55;17.20;99.90
16285;DHT22;8250;52.426;9.450;2022-09-13T00:38:23;17.20;99.90
16285;DHT22;8250;52.426;9.450;2022-09-13T00:40:50;17.20;99.90
16285;DHT22;8250;52.426;9.450;2022-09-13T00:43:20;17.30;99.90
16285;DHT22;8250;52.426;9.450;2022-09-13T00:46:03;17.30;99.90
16285;DHT22;8250;52.426;9.450;2022-09-13T00:48:32;17.40;99.90
16285;DHT22;8250;52.426;9.450;2022-09-13T00:51:01;17.40;99.90
16285;DHT22;8250;52.426;9.450;2022-09-13T00:53:30;17.40;99.90
16285;DHT22;8250;52.426;9.450;2022-09-13T00:56:00;17.50;99.90
16285;DHT22;8250;52.426;9.450;2022-09-13T00:58:32;17.50;99.90
16285;DHT22;8250;52.426;9.450;2022-09-13T01:01:00;17.50;99.90
16285;DHT22;8250;52.426;9.450;2022-09-13T01:03:31;17.50;99.90
16285;DHT22;8250;52.426;9.450;2022-09-13T01:06:03;17.60;99.90
16285;DHT22;8250;52.426;9.450;2022-09-13T01:08:32;17.60;99.90
16285;DHT22;8250;52.426;9.450;2022-09-13T01:11:01;17.60;99.90
16285;DHT22;8250;52.426;9.450;2022-09-13T01:13:32;17.60;99.90
16285;DHT22;8250;52.426;9.450;2022-09-13T01:15:59;17.70;99.90
16285;DHT22;8250;52.426;9.450;2022-09-13T01:18:26;17.70;99.90
16285;DHT22;8250;52.426;9.450;2022-09-13T01:27:15;17.90;99.90
16285;DHT22;8250;52.426;9.450;2022-09-13T01:30:12;17.90;99.90
16285;DHT22;8250;52.426;9.450;2022-09-13T01:33:16;18.00;99.90
16285;DHT22;8250;52.426;9.450;2022-09-13T01:36:02;18.10;99.90
16285;DHT22;8250;52.426;9.450;2022-09-13T01:38:48;18.10;99.90
16285;DHT22;8250;52.426;9.450;2022-09-13T01:41:43;18.20;99.90
16285;DHT22;8250;52.426;9.450;2022-09-13T01:44:20;18.20;99.90
16285;DHT22;8250;52.426;9.450;2022-09-13T01:46:59;18.20;99.90
16285;DHT22;8250;52.426;9.450;2022-09-13T01:49:32;18.30;99.90
16285;DHT22;8250;52.426;9.450;2022-09-13T01:52:08;18.30;99.90
16285;DHT22;8250;52.426;9.450;2022-09-13T01:54:46;18.40;99.90
16285;DHT22;8250;52.426;9.450;2022-09-13T01:57:18;18.40;99.90
16285;DHT22;8250;52.426;9.450;2022-09-13T01:59:49;18.40;99.90
16285;DHT22;8250;52.426;9.450;2022-09-13T02:02:24;18.50;99.90
16285;DHT22;8250;52.426;9.450;2022-09-13T02:04:55;18.50;99.90
16285;DHT22;8250;52.426;9.450;2022-09-13T02:07:28;18.60;99.90
16285;DHT22;8250;52.426;9.450;2022-09-13T02:10:02;18.60;99.90
16285;DHT22;8250;52.426;9.450;2022-09-13T02:12:33;18.60;99.90
16285;DHT22;8250;52.426;9.450;2022-09-13T02:15:06;18.60;99.90
16285;DHT22;8250;52.426;9.450;2022-09-13T02:17:37;18.60;99.90
16285;DHT22;8250;52.426;9.450;2022-09-13T02:20:09;18.60;99.90
16285;DHT22;8250;52.426;9.450;2022-09-13T02:22:42;18.60;99.90
16285;DHT22;8250;52.426;9.450;2022-09-13T02:25:13;18.60;99.90
16285;DHT22;8250;52.426;9.450;2022-09-13T02:27:46;18.60;99.90
16285;DHT22;8250;52.426;9.450;2022-09-13T02:30:14;18.60;99.90
16285;DHT22;8250;52.426;9.450;2022-09-13T02:32:46;18.60;99.90
16285;DHT22;8250;52.426;9.450;2022-09-13T02:35:18;18.50;99.90
16285;DHT22;8250;52.426;9.450;2022-09-13T02:37:50;18.50;99.90
16285;DHT22;8250;52.426;9.450;2022-09-13T02:40:25;18.40;99.90
16285;DHT22;8250;52.426;9.450;2022-09-13T02:42:56;18.30;99.90
16285;DHT22;8250;52.426;9.450;2022-09-13T02:45:29;18.20;99.90
16285;DHT22;8250;52.426;9.450;2022-09-13T02:47:59;18.20;99.90
16285;DHT22;8250;52.426;9.450;2022-09-13T02:50:38;18.10;99.90
16285;DHT22;8250;52.426;9.450;2022-09-13T02:53:15;18.00;99.90
16285;DHT22;8250;52.426;9.450;2022-09-13T02:55:48;18.00;99.90
16285;DHT22;8250;52.426;9.450;2022-09-13T02:58:20;17.90;99.90
16285;DHT22;8250;52.426;9.450;2022-09-13T03:00:51;17.90;99.90
16285;DHT22;8250;52.426;9.450;2022-09-13T03:03:19;17.90;99.90
16285;DHT22;8250;52.426;9.450;2022-09-13T03:05:46;17.90;99.90
16285;DHT22;8250;52.426;9.450;2022-09-13T03:08:14;17.90;99.90
16285;DHT22;8250;52.426;9.450;2022-09-13T03:10:55;17.90;99.90
16285;DHT22;8250;52.426;9.450;2022-09-13T03:13:36;17.90;99.90
16285;DHT22;8250;52.426;9.450;2022-09-13T03:16:18;17.90;99.90
16285;DHT22;8250;52.426;9.450;2022-09-13T03:19:03;17.90;99.90
16285;DHT22;8250;52.426;9.450;2022-09-13T03:21:45;17.90;99.90
16285;DHT22;8250;52.426;9.450;2022-09-13T03:24:20;17.80;99.90
16285;DHT22;8250;52.426;9.450;2022-09-13T03:26:57;17.80;99.90
16285;DHT22;8250;52.426;9.450;2022-09-13T03:29:33;17.80;99.90
16285;DHT22;8250;52.426;9.450;2022-09-13T03:32:16;17.80;99.90
16285;DHT22;8250;52.426;9.450;2022-09-13T03:34:51;17.80;99.90
16285;DHT22;8250;52.426;9.450;2022-09-13T03:37:24;17.90;99.90
16285;DHT22;8250;52.426;9.450;2022-09-13T03:39:56;17.90;99.90
16285;DHT22;8250;52.426;9.450;2022-09-13T03:42:30;17.90;99.90
16285;DHT22;8250;52.426;9.450;2022-09-13T03:45:00;17.90;99.90
16285;DHT22;8250;52.426;9.450;2022-09-13T03:47:29;17.90;99.90
16285;DHT22;8250;52.426;9.450;2022-09-13T03:49:59;17.90;99.90
16285;DHT22;8250;52.426;9.450;2022-09-13T03:52:27;17.90;99.90
16285;DHT22;8250;52.426;9.450;2022-09-13T03:54:54;17.90;99.90
16285;DHT22;8250;52.426;9.450;2022-09-13T03:57:21;17.90;99.90
16285;DHT22;8250;52.426;9.450;2022-09-13T03:59:50;17.90;99.90
16285;DHT22;8250;52.426;9.450;2022-09-13T04:02:17;17.90;99.90
16285;DHT22;8250;52.426;9.450;2022-09-13T04:04:45;17.90;99.90
16285;DHT22;8250;52.426;9.450;2022-09-13T04:07:15;17.90;99.90
16285;DHT22;8250;52.426;9.450;2022-09-13T04:09:42;18.00;99.90
16285;DHT22;8250;52.426;9.450;2022-09-13T04:12:10;18.00;99.90
16285;DHT22;8250;52.426;9.450;2022-09-13T04:14:38;18.00;99.90
16285;DHT22;8250;52.426;9.450;2022-09-13T04:17:06;18.00;99.90
16285;DHT22;8250;52.426;9.450;2022-09-13T04:19:33;18.00;99.90
16285;DHT22;8250;52.426;9.450;2022-09-13T04:22:00;18.00;99.90
16285;DHT22;8250;52.426;9.450;2022-09-13T04:24:28;18.00;99.90
16285;DHT22;8250;52.426;9.450;2022-09-13T04:26:56;18.00;99.90
16285;DHT22;8250;52.426;9.450;2022-09-13T04:29:24;18.00;99.90
16285;DHT22;8250;52.426;9.450;2022-09-13T04:31:52;18.00;99.90
16285;DHT22;8250;52.426;9.450;2022-09-13T04:34:20;18.00;99.90
16285;DHT22;8250;52.426;9.450;2022-09-13T04:36:48;18.00;99.90
16285;DHT22;8250;52.426;9.450;2022-09-13T04:39:15;18.00;99.90
16285;DHT22;8250;52.426;9.450;2022-09-13T04:41:44;18.00;99.90
16285;DHT22;8250;52.426;9.450;2022-09-13T04:44:11;18.00;99.90
16285;DHT22;8250;52.426;9.450;2022-09-13T04:46:38;18.00;99.90
16285;DHT22;8250;52.426;9.450;2022-09-13T04:49:06;18.00;99.90
16285;DHT22;8250;52.426;9.450;2022-09-13T04:51:33;18.00;99.90
16285;DHT22;8250;52.426;9.450;2022-09-13T04:54:00;18.00;99.90
16285;DHT22;8250;52.426;9.450;2022-09-13T04:56:26;18.00;99.90
16285;DHT22;8250;52.426;9.450;2022-09-13T04:58:55;18.00;99.90
16285;DHT22;8250;52.426;9.450;2022-09-13T05:01:23;18.00;99.90
16285;DHT22;8250;52.426;9.450;2022-09-13T05:03:50;18.00;99.90
16285;DHT22;8250;52.426;9.450;2022-09-13T05:06:18;18.00;99.90
16285;DHT22;8250;52.426;9.450;2022-09-13T05:08:49;18.00;99.90
16285;DHT22;8250;52.426;9.450;2022-09-13T05:11:16;18.10;99.90
16285;DHT22;8250;52.426;9.450;2022-09-13T05:13:43;18.00;99.90
16285;DHT22;8250;52.426;9.450;2022-09-13T05:16:18;18.00;99.90
16285;DHT22;8250;52.426;9.450;2022-09-13T05:18:45;18.10;99.90
16285;DHT22;8250;52.426;9.450;2022-09-13T05:21:12;18.10;99.90
16285;DHT22;8250;52.426;9.450;2022-09-13T05:23:40;18.10;99.90
16285;DHT22;8250;52.426;9.450;2022-09-13T05:26:06;18.10;99.90
16285;DHT22;8250;52.426;9.450;2022-09-13T05:28:35;18.10;99.90
16285;DHT22;8250;52.426;9.450;2022-09-13T05:31:04;18.10;99.90
16285;DHT22;8250;52.426;9.450;2022-09-13T05:33:35;18.10;99.90
16285;DHT22;8250;52.426;9.450;2022-09-13T05:36:02;18.10;99.90
16285;DHT22;8250;52.426;9.450;2022-09-13T05:38:29;18.10;99.90
16285;DHT22;8250;52.426;9.450;2022-09-13T05:40:57;18.00;99.90
16285;DHT22;8250;52.426;9.450;2022-09-13T05:43:25;18.10;99.90
16285;DHT22;8250;52.426;9.450;2022-09-13T05:46:00;18.10;99.90
16285;DHT22;8250;52.426;9.450;2022-09-13T05:48:27;18.10;99.90
16285;DHT22;8250;52.426;9.450;2022-09-13T05:50:55;18.10;99.90
16285;DHT22;8250;52.426;9.450;2022-09-13T05:53:22;18.10;99.90
16285;DHT22;8250;52.426;9.450;2022-09-13T05:55:49;18.20;99.90
16285;DHT22;8250;52.426;9.450;2022-09-13T05:58:16;18.20;99.90
16285;DHT22;8250;52.426;9.450;2022-09-13T06:00:43;18.20;99.90
16285;DHT22;8250;52.426;9.450;2022-09-13T06:03:10;18.20;99.90
16285;DHT22;8250;52.426;9.450;2022-09-13T06:05:37;18.20;99.90
16285;DHT22;8250;52.426;9.450;2022-09-13T06:08:05;18.20;99.90
16285;DHT22;8250;52.426;9.450;2022-09-13T06:10:32;18.20;99.90
16285;DHT22;8250;52.426;9.450;2022-09-13T06:13:00;18.20;99.90
16285;DHT22;8250;52.426;9.450;2022-09-13T06:15:27;18.30;99.90
16285;DHT22;8250;52.426;9.450;2022-09-13T06:17:54;18.30;99.90
16285;DHT22;8250;52.426;9.450;2022-09-13T06:20:21;18.30;99.90
16285;DHT22;8250;52.426;9.450;2022-09-13T06:22:49;18.30;99.90
16285;DHT22;8250;52.426;9.450;2022-09-13T06:25:17;18.30;99.90
16285;DHT22;8250;52.426;9.450;2022-09-13T06:27:44;18.30;99.90
16285;DHT22;8250;52.426;9.450;2022-09-13T06:30:11;18.30;99.90
16285;DHT22;8250;52.426;9.450;2022-09-13T06:32:40;18.30;99.90
16285;DHT22;8250;52.426;9.450;2022-09-13T06:35:07;18.40;99.90
16285;DHT22;8250;52.426;9.450;2022-09-13T06:37:34;18.40;99.90
16285;DHT22;8250;52.426;9.450;2022-09-13T06:40:02;18.40;99.90
16285;DHT22;8250;52.426;9.450;2022-09-13T06:42:33;18.40;99.90
16285;DHT22;8250;52.426;9.450;2022-09-13T06:45:00;18.40;99.90
16285;DHT22;8250;52.426;9.450;2022-09-13T06:47:27;18.50;99.90
16285;DHT22;8250;52.426;9.450;2022-09-13T06:49:54;18.40;99.90
16285;DHT22;8250;52.426;9.450;2022-09-13T06:52:22;18.50;99.90
16285;DHT22;8250;52.426;9.450;2022-09-13T06:54:48;18.50;99.90
16285;DHT22;8250;52.426;9.450;2022-09-13T06:57:15;18.50;99.90
16285;DHT22;8250;52.426;9.450;2022-09-13T06:59:44;18.50;99.90
16285;DHT22;8250;52.426;9.450;2022-09-13T07:02:11;18.50;99.90
16285;DHT22;8250;52.426;9.450;2022-09-13T07:04:39;18.50;99.90
16285;DHT22;8250;52.426;9.450;2022-09-13T07:07:06;18.60;99.90
16285;DHT22;8250;52.426;9.450;2022-09-13T07:09:32;18.60;99.90
16285;DHT22;8250;52.426;9.450;2022-09-13T07:12:00;18.60;99.90
16285;DHT22;8250;52.426;9.450;2022-09-13T07:14:28;18.60;99.90
16285;DHT22;8250;52.426;9.450;2022-09-13T07:16:56;18.60;99.90
16285;DHT22;8250;52.426;9.450;2022-09-13T07:19:24;18.60;99.90
16285;DHT22;8250;52.426;9.450;2022-09-13T07:21:52;18.60;99.90
16285;DHT22;8250;52.426;9.450;2022-09-13T07:24:20;18.60;99.90
16285;DHT22;8250;52.426;9.450;2022-09-13T07:26:48;18.60;99.90
16285;DHT22;8250;52.426;9.450;2022-09-13T07:29:16;18.60;99.90
16285;DHT22;8250;52.426;9.450;2022-09-13T07:31:45;18.70;99.90
16285;DHT22;8250;52.426;9.450;2022-09-13T07:34:14;18.70;99.90
16285;DHT22;8250;52.426;9.450;2022-09-13T07:36:42;18.70;99.90
16285;DHT22;8250;52.426;9.450;2022-09-13T07:39:11;18.80;99.90
16285;DHT22;8250;52.426;9.450;2022-09-13T07:41:38;18.80;99.90
16285;DHT22;8250;52.426;9.450;2022-09-13T07:44:05;18.90;99.90
16285;DHT22;8250;52.426;9.450;2022-09-13T07:46:35;18.90;99.90
16285;DHT22;8250;52.426;9.450;2022-09-13T07:49:05;18.90;99.90
16285;DHT22;8250;52.426;9.450;2022-09-13T07:51:35;18.90;99.90
16285;DHT22;8250;52.426;9.450;2022-09-13T07:54:06;18.90;99.90
16285;DHT22;8250;52.426;9.450;2022-09-13T07:56:35;18.90;99.90
16285;DHT22;8250;52.426;9.450;2022-09-13T07:59:04;19.00;99.90
16285;DHT22;8250;52.426;9.450;2022-09-13T08:01:34;19.00;99.90
16285;DHT22;8250;52.426;9.450;2022-09-13T08:04:03;19.00;99.90
16285;DHT22;8250;52.426;9.450;2022-09-13T08:06:33;19.00;99.90
16285;DHT22;8250;52.426;9.450;2022-09-13T08:09:01;19.10;99.90
16285;DHT22;8250;52.426;9.450;2022-09-13T08:11:30;19.10;99.90
16285;DHT22;8250;52.426;9.450;2022-09-13T08:13:58;19.10;99.90
16285;DHT22;8250;52.426;9.450;2022-09-13T08:16:26;19.20;99.90
16285;DHT22;8250;52.426;9.450;2022-09-13T08:18:55;19.20;99.90
16285;DHT22;8250;52.426;9.450;2022-09-13T08:21:23;19.20;99.90
16285;DHT22;8250;52.426;9.450;2022-09-13T08:23:55;19.30;99.90
16285;DHT22;8250;52.426;9.450;2022-09-13T08:26:26;19.20;99.90
16285;DHT22;8250;52.426;9.450;2022-09-13T08:28:55;19.20;99.90
16285;DHT22;8250;52.426;9.450;2022-09-13T08:31:23;19.20;99.90
16285;DHT22;8250;52.426;9.450;2022-09-13T08:33:50;19.20;99.90
16285;DHT22;8250;52.426;9.450;2022-09-13T08:36:17;19.30;99.90
16285;DHT22;8250;52.426;9.450;2022-09-13T08:38:45;19.30;99.90
16285;DHT22;8250;52.426;9.450;2022-09-13T08:44:14;19.30;99.90
16285;DHT22;8250;52.426;9.450;2022-09-13T08:46:44;19.30;99.90
16285;DHT22;8250;52.426;9.450;2022-09-13T08:49:14;19.40;99.90
16285;DHT22;8250;52.426;9.450;2022-09-13T08:51:46;19.40;99.90
16285;DHT22;8250;52.426;9.450;2022-09-13T08:54:14;19.40;99.90
16285;DHT22;8250;52.426;9.450;2022-09-13T08:56:49;19.50;99.90
16285;DHT22;8250;52.426;9.450;2022-09-13T08:59:38;19.50;99.90
16285;DHT22;8250;52.426;9.450;2022-09-13T09:02:17;19.50;99.90
16285;DHT22;8250;52.426;9.450;2022-09-13T09:04:51;19.60;99.90
16285;DHT22;8250;52.426;9.450;2022-09-13T09:07:22;19.70;99.90
16285;DHT22;8250;52.426;9.450;2022-09-13T09:09:52;19.70;99.90
16285;DHT22;8250;52.426;9.450;2022-09-13T09:12:27;19.70;99.90
16285;DHT22;8250;52.426;9.450;2022-09-13T09:15:00;19.70;99.90
16285;DHT22;8250;52.426;9.450;2022-09-13T09:17:31;19.80;99.90
16285;DHT22;8250;52.426;9.450;2022-09-13T09:20:07;19.80;99.90
16285;DHT22;8250;52.426;9.450;2022-09-13T09:22:36;19.80;99.90
16285;DHT22;8250;52.426;9.450;2022-09-13T09:25:03;19.90;99.90
16285;DHT22;8250;52.426;9.450;2022-09-13T09:27:32;19.90;99.90
16285;DHT22;8250;52.426;9.450;2022-09-13T09:30:00;19.90;99.90
16285;DHT22;8250;52.426;9.450;2022-09-13T09:33:06;19.90;99.90
16285;DHT22;8250;52.426;9.450;2022-09-13T09:35:53;19.90;99.90
16285;DHT22;8250;52.426;9.450;2022-09-13T09:38:35;20.00;99.90
16285;DHT22;8250;52.426;9.450;2022-09-13T09:41:11;20.00;99.90
16285;DHT22;8250;52.426;9.450;2022-09-13T09:43:43;19.90;99.90
16285;DHT22;8250;52.426;9.450;2022-09-13T09:46:13;19.90;99.90
16285;DHT22;8250;52.426;9.450;2022-09-13T09:48:47;19.90;99.90
16285;DHT22;8250;52.426;9.450;2022-09-13T09:51:17;20.00;99.90
16285;DHT22;8250;52.426;9.450;2022-09-13T09:53:48;20.10;99.90
16285;DHT22;8250;52.426;9.450;2022-09-13T09:56:21;20.20;99.90
16285;DHT22;8250;52.426;9.450;2022-09-13T09:58:50;20.10;99.90
16285;DHT22;8250;52.426;9.450;2022-09-13T10:01:22;20.10;99.90
16285;DHT22;8250;52.426;9.450;2022-09-13T10:03:53;20.10;99.90
16285;DHT22;8250;52.426;9.450;2022-09-13T10:06:21;20.20;99.90
16285;DHT22;8250;52.426;9.450;2022-09-13T10:08:56;20.10;99.90
16285;DHT22;8250;52.426;9.450;2022-09-13T10:11:24;20.10;99.90
16285;DHT22;8250;52.426;9.450;2022-09-13T10:14:04;20.20;99.90
16285;DHT22;8250;52.426;9.450;2022-09-13T10:16:31;20.20;99.90
16285;DHT22;8250;52.426;9.450;2022-09-13T10:19:23;20.20;99.90
16285;DHT22;8250;52.426;9.450;2022-09-13T10:22:01;20.20;99.90
16285;DHT22;8250;52.426;9.450;2022-09-13T10:24:28;20.30;99.90
16285;DHT22;8250;52.426;9.450;2022-09-13T10:26:56;20.30;99.90
16285;DHT22;8250;52.426;9.450;2022-09-13T10:29:25;20.30;99.90
16285;DHT22;8250;52.426;9.450;2022-09-13T10:31:54;20.40;99.90
16285;DHT22;8250;52.426;9.450;2022-09-13T10:34:25;20.40;99.90
16285;DHT22;8250;52.426;9.450;2022-09-13T10:36:55;20.50;99.90
16285;DHT22;8250;52.426;9.450;2022-09-13T10:39:24;20.50;99.90
16285;DHT22;8250;52.426;9.450;2022-09-13T10:41:53;20.50;99.90
16285;DHT22;8250;52.426;9.450;2022-09-13T10:44:31;20.50;99.90
16285;DHT22;8250;52.426;9.450;2022-09-13T10:47:02;20.50;99.90
16285;DHT22;8250;52.426;9.450;2022-09-13T10:49:38;20.60;99.90
16285;DHT22;8250;52.426;9.450;2022-09-13T10:52:26;20.60;99.90
16285;DHT22;8250;52.426;9.450;2022-09-13T10:54:53;20.60;99.90
16285;DHT22;8250;52.426;9.450;2022-09-13T10:57:34;20.50;99.90
16285;DHT22;8250;52.426;9.450;2022-09-13T11:00:05;20.40;99.90
16285;DHT22;8250;52.426;9.450;2022-09-13T11:02:48;20.40;99.90
16285;DHT22;8250;52.426;9.450;2022-09-13T11:05:21;20.40;99.90
16285;DHT22;8250;52.426;9.450;2022-09-13T11:08:10;20.30;99.90
16285;DHT22;8250;52.426;9.450;2022-09-13T11:10:47;20.30;99.90
16285;DHT22;8250;52.426;9.450;2022-09-13T11:13:26;20.30;99.90
16285;DHT22;8250;52.426;9.450;2022-09-13T11:16:01;20.30;99.90
16285;DHT22;8250;52.426;9.450;2022-09-13T11:18:50;20.20;99.90
16285;DHT22;8250;52.426;9.450;2022-09-13T11:21:27;20.30;99.90
16285;DHT22;8250;52.426;9.450;2022-09-13T11:24:08;20.30;99.90
16285;DHT22;8250;52.426;9.450;2022-09-13T11:26:51;20.20;99.90
16285;DHT22;8250;52.426;9.450;2022-09-13T11:29:32;20.30;99.90
16285;DHT22;8250;52.426;9.450;2022-09-13T11:32:16;20.20;99.90
16285;DHT22;8250;52.426;9.450;2022-09-13T11:34:50;20.20;99.90
16285;DHT22;8250;52.426;9.450;2022-09-13T11:37:43;20.20;99.90
16285;DHT22;8250;52.426;9.450;2022-09-13T11:40:28;20.30;99.90
16285;DHT22;8250;52.426;9.450;2022-09-13T11:43:07;20.20;99.90
16285;DHT22;8250;52.426;9.450;2022-09-13T11:45:40;20.10;99.90
16285;DHT22;8250;52.426;9.450;2022-09-13T11:48:31;20.10;99.90
16285;DHT22;8250;52.426;9.450;2022-09-13T11:51:07;20.10;99.90
16285;DHT22;8250;52.426;9.450;2022-09-13T11:53:47;20.10;99.90
16285;DHT22;8250;52.426;9.450;2022-09-13T11:56:22;20.00;99.90
16285;DHT22;8250;52.426;9.450;2022-09-13T11:58:53;20.00;99.90
16285;DHT22;8250;52.426;9.450;2022-09-13T12:01:25;20.00;99.90
16285;DHT22;8250;52.426;9.450;2022-09-13T12:03:57;19.90;99.90
16285;DHT22;8250;52.426;9.450;2022-09-13T12:06:28;19.90;99.90
16285;DHT22;8250;52.426;9.450;2022-09-13T12:08:59;19.90;99.90
16285;DHT22;8250;52.426;9.450;2022-09-13T12:11:31;19.90;99.90
16285;DHT22;8250;52.426;9.450;2022-09-13T12:14:01;19.80;99.90
16285;DHT22;8250;52.426;9.450;2022-09-13T12:16:31;19.80;99.90
16285;DHT22;8250;52.426;9.450;2022-09-13T12:19:03;19.70;99.90
16285;DHT22;8250;52.426;9.450;2022-09-13T12:21:35;19.70;99.90
16285;DHT22;8250;52.426;9.450;2022-09-13T12:24:05;19.70;99.90
16285;DHT22;8250;52.426;9.450;2022-09-13T12:26:37;19.70;99.90
16285;DHT22;8250;52.426;9.450;2022-09-13T12:29:13;19.70;99.90
16285;DHT22;8250;52.426;9.450;2022-09-13T12:31:41;19.70;99.90
16285;DHT22;8250;52.426;9.450;2022-09-13T12:34:15;19.70;99.90
16285;DHT22;8250;52.426;9.450;2022-09-13T12:37:15;19.70;99.90
16285;DHT22;8250;52.426;9.450;2022-09-13T12:43:25;19.80;99.90
16285;DHT22;8250;52.426;9.450;2022-09-13T12:46:25;19.90;99.90
16285;DHT22;8250;52.426;9.450;2022-09-13T12:49:19;20.00;99.90
16285;DHT22;8250;52.426;9.450;2022-09-13T12:52:10;20.20;99.90
16285;DHT22;8250;52.426;9.450;2022-09-13T12:57:43;20.50;99.90
16285;DHT22;8250;52.426;9.450;2022-09-13T13:00:21;20.50;99.90
16285;DHT22;8250;52.426;9.450;2022-09-13T13:02:59;20.60;99.90
16285;DHT22;8250;52.426;9.450;2022-09-13T13:05:30;20.70;99.90
16285;DHT22;8250;52.426;9.450;2022-09-13T13:08:01;20.70;99.90
16285;DHT22;8250;52.426;9.450;2022-09-13T13:10:31;20.80;99.90
16285;DHT22;8250;52.426;9.450;2022-09-13T13:13:19;20.90;99.90
16285;DHT22;8250;52.426;9.450;2022-09-13T13:16:03;20.80;99.90
16285;DHT22;8250;52.426;9.450;2022-09-13T13:18:31;20.90;99.90
16285;DHT22;8250;52.426;9.450;2022-09-13T13:21:35;20.90;99.90
16285;DHT22;8250;52.426;9.450;2022-09-13T13:27:41;21.10;99.90
16285;DHT22;8250;52.426;9.450;2022-09-13T13:30:39;21.40;99.90
16285;DHT22;8250;52.426;9.450;2022-09-13T13:33:16;21.40;99.90
16285;DHT22;8250;52.426;9.450;2022-09-13T13:35:46;21.50;99.90
16285;DHT22;8250;52.426;9.450;2022-09-13T13:38:48;21.60;99.90
16285;DHT22;8250;52.426;9.450;2022-09-13T13:41:35;21.60;99.90
16285;DHT22;8250;52.426;9.450;2022-09-13T13:50:13;21.60;99.90
16285;DHT22;8250;52.426;9.450;2022-09-13T13:52:51;21.60;99.90
16285;DHT22;8250;52.426;9.450;2022-09-13T13:55:42;21.70;99.90
16285;DHT22;8250;52.426;9.450;2022-09-13T13:58:25;21.70;99.90
16285;DHT22;8250;52.426;9.450;2022-09-13T14:00:54;21.70;99.90
16285;DHT22;8250;52.426;9.450;2022-09-13T14:03:27;21.80;99.90
16285;DHT22;8250;52.426;9.450;2022-09-13T14:06:04;22.00;99.90
16285;DHT22;8250;52.426;9.450;2022-09-13T14:08:43;22.00;99.90
16285;DHT22;8250;52.426;9.450;2022-09-13T14:11:22;21.90;99.90
16285;DHT22;8250;52.426;9.450;2022-09-13T14:14:07;21.90;99.90
16285;DHT22;8250;52.426;9.450;2022-09-13T14:16:51;21.90;99.90
16285;DHT22;8250;52.426;9.450;2022-09-13T14:19:23;21.90;99.90
16285;DHT22;8250;52.426;9.450;2022-09-13T14:22:12;22.00;99.90
16285;DHT22;8250;52.426;9.450;2022-09-13T14:24:41;22.00;99.90
16285;DHT22;8250;52.426;9.450;2022-09-13T14:27:18;22.00;99.90
16285;DHT22;8250;52.426;9.450;2022-09-13T14:29:47;22.00;99.90
16285;DHT22;8250;52.426;9.450;2022-09-13T14:32:17;22.00;99.90
16285;DHT22;8250;52.426;9.450;2022-09-13T14:34:54;22.10;99.90
16285;DHT22;8250;52.426;9.450;2022-09-13T14:37:26;22.20;99.90
16285;DHT22;8250;52.426;9.450;2022-09-13T14:39:55;22.20;99.90
16285;DHT22;8250;52.426;9.450;2022-09-13T14:42:24;22.30;99.90
16285;DHT22;8250;52.426;9.450;2022-09-13T14:44:51;22.30;99.90
16285;DHT22;8250;52.426;9.450;2022-09-13T14:47:24;22.40;99.90
16285;DHT22;8250;52.426;9.450;2022-09-13T14:49:57;22.40;99.90
16285;DHT22;8250;52.426;9.450;2022-09-13T14:52:29;22.40;99.90
16285;DHT22;8250;52.426;9.450;2022-09-13T14:54:59;22.50;99.90
16285;DHT22;8250;52.426;9.450;2022-09-13T14:57:31;22.40;99.90
16285;DHT22;8250;52.426;9.450;2022-09-13T15:00:03;22.50;99.90
16285;DHT22;8250;52.426;9.450;2022-09-13T15:02:36;22.40;99.90
16285;DHT22;8250;52.426;9.450;2022-09-13T15:05:06;22.40;99.90
16285;DHT22;8250;52.426;9.450;2022-09-13T15:07:36;22.30;99.90
16285;DHT22;8250;52.426;9.450;2022-09-13T15:10:18;22.20;99.90
16285;DHT22;8250;52.426;9.450;2022-09-13T15:12:52;22.10;99.90
16285;DHT22;8250;52.426;9.450;2022-09-13T15:15:32;22.00;99.90
16285;DHT22;8250;52.426;9.450;2022-09-13T15:18:01;21.80;99.90
16285;DHT22;8250;52.426;9.450;2022-09-13T15:20:43;21.70;99.90
16285;DHT22;8250;52.426;9.450;2022-09-13T15:23:14;21.50;99.90
16285;DHT22;8250;52.426;9.450;2022-09-13T15:25:47;21.40;99.90
16285;DHT22;8250;52.426;9.450;2022-09-13T15:28:22;21.30;99.90
16285;DHT22;8250;52.426;9.450;2022-09-13T15:30:49;21.30;99.90
16285;DHT22;8250;52.426;9.450;2022-09-13T15:33:22;21.20;99.90
16285;DHT22;8250;52.426;9.450;2022-09-13T15:35:50;21.20;99.90
16285;DHT22;8250;52.426;9.450;2022-09-13T15:38:24;21.20;99.90
16285;DHT22;8250;52.426;9.450;2022-09-13T15:41:00;21.20;99.90
16285;DHT22;8250;52.426;9.450;2022-09-13T15:43:29;21.30;99.90
16285;DHT22;8250;52.426;9.450;2022-09-13T15:45:58;21.40;99.90
16285;DHT22;8250;52.426;9.450;2022-09-13T15:48:27;21.40;99.90
16285;DHT22;8250;52.426;9.450;2022-09-13T15:51:07;21.50;99.90
16285;DHT22;8250;52.426;9.450;2022-09-13T15:53:35;21.50;99.90
16285;DHT22;8250;52.426;9.450;2022-09-13T15:56:04;21.50;99.90
16285;DHT22;8250;52.426;9.450;2022-09-13T15:58:34;21.40;99.90
16285;DHT22;8250;52.426;9.450;2022-09-13T16:01:01;21.40;99.90
16285;DHT22;8250;52.426;9.450;2022-09-13T16:03:28;21.40;99.90
16285;DHT22;8250;52.426;9.450;2022-09-13T16:05:56;21.50;99.90
16285;DHT22;8250;52.426;9.450;2022-09-13T16:08:23;21.40;99.90
16285;DHT22;8250;52.426;9.450;2022-09-13T16:10:50;21.40;99.90
16285;DHT22;8250;52.426;9.450;2022-09-13T16:13:17;21.50;99.90
16285;DHT22;8250;52.426;9.450;2022-09-13T16:15:45;21.50;99.90
16285;DHT22;8250;52.426;9.450;2022-09-13T16:18:13;21.50;99.90
16285;DHT22;8250;52.426;9.450;2022-09-13T16:20:40;21.50;99.90
16285;DHT22;8250;52.426;9.450;2022-09-13T16:23:07;21.50;99.90
16285;DHT22;8250;52.426;9.450;2022-09-13T16:25:34;21.50;99.90
16285;DHT22;8250;52.426;9.450;2022-09-13T16:28:02;21.40;99.90
16285;DHT22;8250;52.426;9.450;2022-09-13T16:30:29;21.40;99.90
16285;DHT22;8250;52.426;9.450;2022-09-13T16:32:58;21.40;99.90
16285;DHT22;8250;52.426;9.450;2022-09-13T16:35:28;21.40;99.90
16285;DHT22;8250;52.426;9.450;2022-09-13T16:37:56;21.40;99.90
16285;DHT22;8250;52.426;9.450;2022-09-13T16:40:23;21.40;99.90
16285;DHT22;8250;52.426;9.450;2022-09-13T16:42:50;21.40;99.90